createdAt,value
2022-10-08T00:00:52.932Z,97.90
2022-10-08T00:03:20.493Z,98.00
2022-10-08T00:05:57.274Z,98.00
2022-10-08T00:08:24.446Z,98.00
2022-10-08T00:10:55.191Z,98.00
2022-10-08T00:13:22.224Z,98.00
2022-10-08T00:15:48.872Z,98.10
2022-10-08T00:18:15.631Z,98.10
2022-10-08T00:20:42.980Z,98.10
2022-10-08T00:23:09.691Z,98.10
2022-10-08T00:25:41.846Z,98.10
2022-10-08T00:28:09.387Z,98.10
2022-10-08T00:30:37.055Z,98.10
2022-10-08T00:33:03.881Z,98.10
2022-10-08T00:35:30.773Z,98.10
2022-10-08T00:37:57.623Z,98.10
2022-10-08T00:40:25.227Z,98.30
2022-10-08T00:42:53.022Z,98.20
2022-10-08T00:45:19.863Z,98.20
2022-10-08T00:47:46.871Z,98.20
2022-10-08T00:50:18.944Z,98.20
2022-10-08T00:52:47.757Z,98.20
2022-10-08T00:55:15.335Z,98.20
2022-10-08T00:57:42.262Z,98.30
2022-10-08T01:00:19.323Z,98.50
2022-10-08T01:02:46.288Z,98.20
2022-10-08T01:05:13.955Z,98.20
2022-10-08T01:07:51.995Z,98.20
2022-10-08T01:10:21.359Z,98.20
2022-10-08T01:13:04.912Z,98.20
2022-10-08T01:15:42.407Z,98.30
2022-10-08T01:18:12.189Z,98.30
2022-10-08T01:20:47.881Z,98.30
2022-10-08T01:23:14.609Z,98.30
2022-10-08T01:26:09.734Z,98.30
2022-10-08T01:28:41.113Z,98.30
2022-10-08T01:31:21.987Z,98.40
2022-10-08T01:34:08.026Z,98.30
2022-10-08T01:36:36.712Z,98.40
2022-10-08T01:39:05.297Z,98.40
2022-10-08T01:41:32.135Z,98.40
2022-10-08T01:44:09.361Z,98.40
2022-10-08T01:46:36.848Z,98.40
2022-10-08T01:49:07.302Z,98.30
2022-10-08T01:51:39.515Z,98.30
2022-10-08T01:54:06.703Z,98.30
2022-10-08T01:56:33.380Z,98.30
2022-10-08T01:59:06.264Z,98.30
2022-10-08T02:01:37.013Z,98.30
2022-10-08T02:04:22.581Z,98.30
2022-10-08T02:06:51.204Z,98.30
2022-10-08T02:09:18.212Z,98.30
2022-10-08T02:11:45.046Z,98.30
2022-10-08T02:14:11.895Z,98.40
2022-10-08T02:16:39.427Z,98.40
2022-10-08T02:19:07.835Z,98.40
2022-10-08T02:21:35.035Z,98.40
2022-10-08T02:24:08.702Z,98.40
2022-10-08T02:26:37.131Z,98.70
2022-10-08T02:29:05.473Z,98.40
2022-10-08T02:31:32.398Z,98.40
2022-10-08T02:34:05.599Z,98.40
2022-10-08T02:36:34.293Z,98.50
2022-10-08T02:39:04.477Z,98.40
2022-10-08T02:41:31.969Z,98.40
2022-10-08T02:43:59.831Z,98.50
2022-10-08T02:46:27.593Z,98.50
2022-10-08T02:49:00.957Z,98.50
2022-10-08T02:51:27.912Z,98.40
2022-10-08T02:53:54.822Z,98.40
2022-10-08T02:56:47.654Z,98.50
2022-10-08T02:59:14.891Z,98.40
2022-10-08T03:01:50.958Z,98.50
2022-10-08T03:04:25.395Z,98.40
2022-10-08T03:06:52.925Z,98.40
2022-10-08T03:09:19.703Z,98.50
2022-10-08T03:11:46.680Z,98.40
2022-10-08T03:14:13.922Z,98.40
2022-10-08T03:16:44.096Z,98.50
2022-10-08T03:19:11.375Z,98.50
2022-10-08T03:21:39.450Z,98.50
2022-10-08T03:24:09.836Z,98.50
2022-10-08T03:26:36.657Z,98.50
2022-10-08T03:29:03.603Z,98.50
2022-10-08T03:31:30.270Z,98.50
2022-10-08T03:33:59.699Z,98.70
2022-10-08T03:36:26.495Z,98.50
2022-10-08T03:38:53.239Z,98.60
2022-10-08T03:41:20.123Z,98.50
2022-10-08T03:43:47.217Z,98.60
2022-10-08T03:46:14.242Z,98.60
2022-10-08T03:48:41.509Z,98.60
2022-10-08T03:51:10.199Z,98.60
2022-10-08T03:53:37.362Z,98.60
2022-10-08T03:56:09.044Z,98.60
2022-10-08T03:58:35.750Z,98.60
2022-10-08T04:01:03.455Z,98.60
2022-10-08T04:03:30.475Z,98.60
2022-10-08T04:05:57.461Z,98.60
2022-10-08T04:08:25.899Z,98.60
2022-10-08T04:10:52.936Z,98.60
2022-10-08T04:13:19.672Z,98.60
2022-10-08T04:15:50.844Z,98.60
2022-10-08T04:18:17.807Z,98.60
2022-10-08T04:20:44.716Z,98.70
2022-10-08T04:23:11.519Z,98.60
2022-10-08T04:25:38.369Z,98.60
2022-10-08T04:28:05.413Z,98.60
2022-10-08T04:30:32.348Z,98.60
2022-10-08T04:32:59.306Z,98.60
2022-10-08T04:35:26.094Z,98.60
2022-10-08T04:37:52.882Z,98.60
2022-10-08T04:40:19.622Z,98.60
2022-10-08T04:42:50.163Z,98.60
2022-10-08T04:45:17.548Z,98.70
2022-10-08T04:47:44.288Z,98.70
2022-10-08T04:50:11.061Z,98.60
2022-10-08T04:52:37.745Z,98.60
2022-10-08T04:55:07.103Z,98.70
2022-10-08T04:57:33.773Z,98.50
2022-10-08T05:00:17.509Z,98.60
2022-10-08T05:02:46.232Z,98.60
2022-10-08T05:05:13.287Z,98.60
2022-10-08T05:07:47.373Z,98.60
2022-10-08T05:10:14.372Z,98.60
2022-10-08T05:12:41.207Z,98.70
2022-10-08T05:15:16.108Z,98.60
2022-10-08T05:17:48.065Z,98.60
2022-10-08T05:20:20.182Z,98.80
2022-10-08T05:22:47.762Z,98.70
2022-10-08T05:25:14.732Z,98.80
2022-10-08T05:27:43.723Z,98.90
2022-10-08T05:30:10.754Z,98.70
2022-10-08T05:32:37.594Z,98.60
2022-10-08T05:35:06.489Z,98.60
2022-10-08T05:37:35.010Z,98.60
2022-10-08T05:40:04.025Z,98.60
2022-10-08T05:42:30.802Z,98.60
2022-10-08T05:44:57.803Z,98.50
2022-10-08T05:47:25.001Z,98.50
2022-10-08T05:49:51.644Z,98.50
2022-10-08T05:52:18.806Z,98.60
2022-10-08T05:54:45.427Z,98.60
2022-10-08T05:57:12.080Z,98.50
2022-10-08T05:59:38.819Z,98.50
2022-10-08T06:02:06.863Z,98.60
2022-10-08T06:04:33.623Z,98.50
2022-10-08T06:07:00.366Z,98.60
2022-10-08T06:09:27.121Z,98.60
2022-10-08T06:11:54.073Z,98.50
2022-10-08T06:14:20.769Z,98.60
2022-10-08T06:16:47.651Z,98.60
2022-10-08T06:19:14.598Z,98.60
2022-10-08T06:21:41.339Z,98.60
2022-10-08T06:24:08.781Z,98.60
2022-10-08T06:26:36.563Z,98.60
2022-10-08T06:29:06.764Z,98.50
2022-10-08T06:31:34.377Z,98.60
2022-10-08T06:34:02.622Z,98.60
2022-10-08T06:36:29.460Z,98.60
2022-10-08T06:38:57.262Z,98.60
2022-10-08T06:41:24.131Z,98.60
2022-10-08T06:43:51.168Z,98.70
2022-10-08T06:46:20.474Z,98.70
2022-10-08T06:48:47.972Z,98.80
2022-10-08T06:51:15.741Z,98.70
2022-10-08T06:53:42.831Z,98.80
2022-10-08T06:56:14.704Z,98.80
2022-10-08T06:58:42.125Z,98.80
2022-10-08T07:01:09.718Z,98.80
2022-10-08T07:03:36.600Z,98.90
2022-10-08T07:06:04.567Z,98.90
2022-10-08T07:08:31.370Z,99.20
2022-10-08T07:11:05.067Z,98.90
2022-10-08T07:13:31.853Z,99.00
2022-10-08T07:16:03.123Z,99.00
2022-10-08T07:18:30.205Z,99.00
2022-10-08T07:21:03.248Z,99.10
2022-10-08T07:23:30.639Z,99.20
2022-10-08T07:26:19.192Z,99.30
2022-10-08T07:28:50.096Z,99.20
2022-10-08T07:31:20.931Z,99.20
2022-10-08T07:33:48.193Z,99.20
2022-10-08T07:36:18.770Z,99.20
2022-10-08T07:38:45.827Z,99.30
2022-10-08T07:41:16.194Z,99.30
2022-10-08T07:43:43.402Z,99.30
2022-10-08T07:46:10.817Z,99.30
2022-10-08T07:48:38.081Z,99.30
2022-10-08T07:51:11.773Z,99.40
2022-10-08T07:53:38.621Z,99.30
2022-10-08T07:56:06.470Z,99.30
2022-10-08T07:58:33.233Z,99.30
2022-10-08T08:01:00.334Z,99.30
2022-10-08T08:03:27.435Z,99.20
2022-10-08T08:05:54.524Z,99.30
2022-10-08T08:08:24.519Z,99.30
2022-10-08T08:10:57.897Z,99.20
2022-10-08T08:13:24.632Z,99.10
2022-10-08T08:15:58.283Z,99.00
2022-10-08T08:18:25.650Z,99.00
2022-10-08T08:20:59.535Z,98.90
2022-10-08T08:23:34.649Z,98.90
2022-10-08T08:26:02.831Z,98.80
2022-10-08T08:28:29.637Z,98.50
2022-10-08T08:31:06.701Z,98.40
2022-10-08T08:33:33.446Z,98.30
2022-10-08T08:36:00.245Z,98.60
2022-10-08T08:38:27.264Z,98.20
2022-10-08T08:40:55.411Z,98.00
2022-10-08T08:43:22.715Z,97.80
2022-10-08T08:45:49.784Z,97.70
2022-10-08T08:48:21.083Z,97.60
2022-10-08T08:50:49.017Z,97.30
2022-10-08T08:53:15.846Z,97.30
2022-10-08T08:55:46.252Z,97.10
2022-10-08T08:58:16.527Z,97.00
2022-10-08T09:00:44.779Z,96.80
2022-10-08T09:03:14.231Z,96.50
2022-10-08T09:05:42.043Z,96.40
2022-10-08T09:08:12.057Z,96.40
2022-10-08T09:11:06.032Z,96.50
2022-10-08T09:13:37.453Z,96.60
2022-10-08T09:16:04.387Z,96.70
2022-10-08T09:18:31.620Z,96.80
2022-10-08T09:21:00.947Z,97.00
2022-10-08T09:23:29.584Z,97.30
2022-10-08T09:26:16.730Z,97.40
2022-10-08T09:28:44.532Z,97.50
2022-10-08T09:31:22.683Z,97.70
2022-10-08T09:33:59.803Z,97.70
2022-10-08T09:36:32.994Z,97.70
2022-10-08T09:39:02.406Z,97.80
2022-10-08T09:41:32.136Z,98.00
2022-10-08T09:44:15.014Z,98.00
2022-10-08T09:46:41.809Z,98.10
2022-10-08T09:49:28.601Z,98.10
2022-10-08T09:51:55.431Z,98.10
2022-10-08T09:54:23.689Z,98.10
2022-10-08T09:56:53.309Z,98.20
2022-10-08T09:59:23.201Z,98.20
2022-10-08T10:01:50.009Z,98.20
2022-10-08T10:04:29.912Z,98.20
2022-10-08T10:06:56.848Z,98.20
2022-10-08T10:09:28.084Z,98.20
2022-10-08T10:11:56.700Z,98.20
2022-10-08T10:14:28.797Z,98.20
2022-10-08T10:17:00.045Z,98.20
2022-10-08T10:19:29.382Z,98.30
2022-10-08T10:22:08.154Z,98.30
2022-10-08T10:24:38.029Z,98.30
2022-10-08T10:27:09.209Z,98.20
2022-10-08T10:29:55.156Z,98.20
2022-10-08T10:32:23.907Z,98.30
2022-10-08T10:34:54.803Z,98.30
2022-10-08T10:37:25.211Z,98.20
2022-10-08T10:39:53.187Z,98.20
2022-10-08T10:42:26.782Z,98.20
2022-10-08T10:44:59.152Z,98.20
2022-10-08T10:47:31.783Z,98.20
2022-10-08T10:50:00.410Z,98.20
2022-10-08T10:52:36.405Z,98.30
2022-10-08T10:55:23.423Z,98.20
2022-10-08T10:57:54.838Z,98.50
2022-10-08T11:00:40.545Z,98.70
2022-10-08T11:03:07.214Z,98.50
2022-10-08T11:05:34.437Z,98.50
2022-10-08T11:08:07.190Z,98.50
2022-10-08T11:11:15.622Z,98.30
2022-10-08T11:13:44.739Z,97.70
2022-10-08T11:16:15.859Z,97.40
2022-10-08T11:18:55.946Z,97.00
2022-10-08T11:21:28.940Z,96.80
2022-10-08T11:24:02.140Z,96.40
2022-10-08T11:26:34.780Z,95.90
2022-10-08T11:29:34.253Z,95.30
2022-10-08T11:32:01.236Z,95.40
2022-10-08T11:34:37.134Z,94.80
2022-10-08T11:37:16.368Z,94.50
2022-10-08T11:39:46.099Z,94.90
2022-10-08T11:42:21.408Z,94.80
2022-10-08T11:44:48.433Z,94.40
2022-10-08T11:47:34.046Z,94.20
2022-10-08T11:50:01.065Z,94.10
2022-10-08T11:52:34.233Z,94.00
2022-10-08T11:55:02.393Z,93.90
2022-10-08T11:58:06.296Z,93.80
2022-10-08T12:00:26.249Z,93.30
2022-10-08T12:02:53.832Z,93.20
2022-10-08T12:05:23.682Z,92.90
2022-10-08T12:07:54.491Z,92.60
2022-10-08T12:10:24.414Z,92.40
2022-10-08T12:12:51.598Z,92.80
2022-10-08T12:15:35.726Z,92.50
2022-10-08T12:18:17.403Z,92.70
2022-10-08T12:20:44.093Z,92.20
2022-10-08T12:23:15.204Z,92.50
2022-10-08T12:25:44.491Z,92.80
2022-10-08T12:28:20.931Z,92.10
2022-10-08T12:30:48.211Z,92.10
2022-10-08T12:33:15.204Z,91.10
2022-10-08T12:36:02.297Z,91.10
2022-10-08T12:38:32.061Z,91.10
2022-10-08T12:41:17.652Z,90.90
2022-10-08T12:43:50.441Z,91.00
2022-10-08T12:46:21.123Z,90.80
2022-10-08T12:48:51.798Z,90.00
2022-10-08T12:51:18.380Z,89.20
2022-10-08T12:53:46.033Z,89.70
2022-10-08T12:56:18.140Z,90.00
2022-10-08T12:58:45.640Z,89.50
2022-10-08T13:01:12.657Z,89.10
2022-10-08T13:03:39.421Z,88.90
2022-10-08T13:06:30.371Z,88.40
2022-10-08T13:08:59.776Z,87.80
2022-10-08T13:11:28.296Z,87.20
2022-10-08T13:13:54.970Z,86.30
2022-10-08T13:16:25.133Z,86.40
2022-10-08T13:18:53.983Z,86.00
2022-10-08T13:21:34.945Z,85.40
2022-10-08T13:24:03.300Z,84.70
2022-10-08T13:26:43.260Z,83.00
2022-10-08T13:29:40.124Z,82.60
2022-10-08T13:32:13.031Z,81.80
2022-10-08T13:34:39.830Z,82.20
2022-10-08T13:37:06.630Z,81.40
2022-10-08T13:39:34.776Z,80.20
2022-10-08T13:42:02.222Z,79.50
2022-10-08T13:44:32.167Z,79.20
2022-10-08T13:47:03.593Z,79.00
2022-10-08T13:49:32.530Z,78.30
2022-10-08T13:51:59.242Z,78.20
2022-10-08T13:54:29.125Z,77.70
2022-10-08T13:56:55.978Z,77.00
2022-10-08T13:59:24.971Z,76.90
2022-10-08T14:01:56.866Z,76.40
2022-10-08T14:04:23.819Z,75.40
2022-10-08T14:06:53.131Z,75.20
2022-10-08T14:09:21.035Z,75.10
2022-10-08T14:11:50.678Z,74.80
2022-10-08T14:14:17.425Z,75.00
2022-10-08T14:16:44.146Z,75.10
2022-10-08T14:19:12.286Z,75.00
2022-10-08T14:21:39.606Z,74.80
2022-10-08T14:24:07.081Z,74.30
2022-10-08T14:26:36.858Z,74.10
2022-10-08T14:29:03.775Z,73.80
2022-10-08T14:31:30.916Z,73.30
2022-10-08T14:33:58.050Z,73.30
2022-10-08T14:36:26.832Z,72.90
2022-10-08T14:38:53.654Z,72.10
2022-10-08T14:41:20.370Z,73.00
2022-10-08T14:43:49.535Z,72.00
2022-10-08T14:46:16.434Z,71.80
2022-10-08T14:48:43.369Z,70.90
2022-10-08T14:51:12.554Z,70.70
2022-10-08T14:53:39.367Z,70.90
2022-10-08T14:56:12.560Z,71.30
2022-10-08T14:58:40.285Z,70.80
2022-10-08T15:01:07.060Z,70.40
2022-10-08T15:03:33.949Z,70.90
2022-10-08T15:06:00.978Z,71.50
2022-10-08T15:08:27.895Z,71.60
2022-10-08T15:10:54.919Z,71.70
2022-10-08T15:13:21.710Z,71.90
2022-10-08T15:15:48.631Z,71.40
2022-10-08T15:18:15.714Z,71.50
2022-10-08T15:20:45.817Z,72.00
2022-10-08T15:23:12.609Z,72.30
2022-10-08T15:25:40.574Z,72.40
2022-10-08T15:28:07.373Z,72.30
2022-10-08T15:30:34.084Z,72.30
2022-10-08T15:33:04.390Z,72.10
2022-10-08T15:35:34.847Z,72.10
2022-10-08T15:38:04.629Z,71.90
2022-10-08T15:40:31.581Z,71.50
2022-10-08T15:42:58.567Z,71.50
2022-10-08T15:45:25.492Z,70.90
2022-10-08T15:47:52.168Z,70.80
2022-10-08T15:50:19.096Z,71.00
2022-10-08T15:52:46.633Z,71.30
2022-10-08T15:55:13.451Z,71.00
2022-10-08T15:57:40.193Z,71.10
2022-10-08T16:00:07.282Z,71.10
2022-10-08T16:02:34.222Z,71.00
2022-10-08T16:05:01.200Z,71.10
2022-10-08T16:07:27.782Z,71.20
2022-10-08T16:09:54.460Z,71.10
2022-10-08T16:12:21.418Z,70.90
2022-10-08T16:14:48.407Z,70.80
2022-10-08T16:17:18.113Z,71.00
2022-10-08T16:19:44.993Z,70.80
2022-10-08T16:22:17.812Z,70.80
2022-10-08T16:24:44.885Z,70.90
2022-10-08T16:27:11.577Z,71.30
2022-10-08T16:29:41.767Z,70.60
2022-10-08T16:32:10.894Z,70.70
2022-10-08T16:34:37.636Z,70.40
2022-10-08T16:37:05.017Z,70.40
2022-10-08T16:39:31.700Z,70.60
2022-10-08T16:41:58.394Z,70.70
2022-10-08T16:44:25.122Z,70.90
2022-10-08T16:46:52.127Z,70.80
2022-10-08T16:49:24.645Z,70.70
2022-10-08T16:51:52.653Z,70.60
2022-10-08T16:54:19.451Z,70.60
2022-10-08T16:56:46.398Z,70.70
2022-10-08T16:59:14.331Z,71.00
2022-10-08T17:01:42.079Z,71.20
2022-10-08T17:04:08.916Z,71.30
2022-10-08T17:06:35.993Z,71.50
2022-10-08T17:09:02.888Z,71.80
2022-10-08T17:11:29.591Z,71.90
2022-10-08T17:13:56.782Z,72.10
2022-10-08T17:16:24.194Z,72.30
2022-10-08T17:18:51.258Z,72.50
2022-10-08T17:21:18.024Z,72.70
2022-10-08T17:23:44.848Z,72.80
2022-10-08T17:26:12.348Z,73.00
2022-10-08T17:28:40.023Z,73.20
2022-10-08T17:31:07.412Z,73.30
2022-10-08T17:33:36.000Z,73.50
2022-10-08T17:36:06.279Z,73.60
2022-10-08T17:38:37.015Z,73.70
2022-10-08T17:41:10.859Z,73.80
2022-10-08T17:43:37.553Z,74.00
2022-10-08T17:46:10.935Z,74.10
2022-10-08T17:48:37.647Z,74.20
2022-10-08T17:51:04.617Z,74.40
2022-10-08T17:53:31.529Z,74.50
2022-10-08T17:56:02.127Z,74.70
2022-10-08T17:58:28.884Z,74.80
2022-10-08T18:01:02.504Z,75.00
2022-10-08T18:03:29.655Z,75.10
2022-10-08T18:05:59.421Z,75.30
2022-10-08T18:08:26.360Z,75.40
2022-10-08T18:10:53.010Z,75.60
2022-10-08T18:13:19.731Z,75.70
2022-10-08T18:15:46.847Z,75.80
2022-10-08T18:18:13.567Z,76.50
2022-10-08T18:20:40.319Z,76.00
2022-10-08T18:23:08.406Z,76.20
2022-10-08T18:25:35.732Z,76.30
2022-10-08T18:28:02.748Z,76.30
2022-10-08T18:30:34.979Z,76.50
2022-10-08T18:33:01.632Z,76.70
2022-10-08T18:35:28.223Z,76.60
2022-10-08T18:37:56.750Z,76.60
2022-10-08T18:40:23.641Z,76.70
2022-10-08T18:42:50.369Z,76.80
2022-10-08T18:45:17.427Z,76.90
2022-10-08T18:47:44.192Z,77.00
2022-10-08T18:50:10.821Z,77.20
2022-10-08T18:52:37.526Z,77.20
2022-10-08T18:55:04.395Z,77.30
2022-10-08T18:57:31.550Z,77.30
2022-10-08T18:59:58.257Z,77.50
2022-10-08T19:02:25.091Z,77.50
2022-10-08T19:04:52.410Z,77.60
2022-10-08T19:07:19.312Z,77.80
2022-10-08T19:09:45.947Z,77.90
2022-10-08T19:12:12.610Z,78.00
2022-10-08T19:14:39.576Z,78.10
2022-10-08T19:17:06.647Z,78.10
2022-10-08T19:19:33.846Z,78.20
2022-10-08T19:22:03.796Z,78.30
2022-10-08T19:24:31.059Z,78.40
2022-10-08T19:26:57.886Z,78.50
2022-10-08T19:29:29.280Z,78.60
2022-10-08T19:31:56.264Z,78.60
2022-10-08T19:34:24.933Z,78.70
2022-10-08T19:36:51.775Z,78.90
2022-10-08T19:39:25.532Z,78.90
2022-10-08T19:41:52.668Z,79.00
2022-10-08T19:44:19.471Z,79.10
2022-10-08T19:46:46.800Z,79.20
2022-10-08T19:49:13.863Z,79.20
2022-10-08T19:51:40.918Z,79.80
2022-10-08T19:54:07.662Z,79.30
2022-10-08T19:56:34.660Z,79.40
2022-10-08T19:59:01.379Z,79.50
2022-10-08T20:01:29.665Z,79.60
2022-10-08T20:03:56.936Z,79.70
2022-10-08T20:06:24.941Z,79.80
2022-10-08T20:08:55.786Z,79.80
2022-10-08T20:11:22.538Z,79.80
2022-10-08T20:13:49.780Z,79.90
2022-10-08T20:16:19.635Z,80.00
2022-10-08T20:18:50.847Z,80.00
2022-10-08T20:21:17.687Z,80.10
2022-10-08T20:23:44.421Z,80.10
2022-10-08T20:26:12.897Z,80.10
2022-10-08T20:28:39.852Z,80.30
2022-10-08T20:31:13.855Z,80.30
2022-10-08T20:33:41.434Z,80.40
2022-10-08T20:36:08.759Z,80.50
2022-10-08T20:38:37.999Z,80.60
2022-10-08T20:41:05.016Z,80.80
2022-10-08T20:43:31.940Z,80.80
2022-10-08T20:46:02.436Z,80.90
2022-10-08T20:48:31.182Z,80.90
2022-10-08T20:51:03.649Z,81.00
2022-10-08T20:53:30.679Z,81.20
2022-10-08T20:55:57.384Z,81.20
2022-10-08T20:58:24.382Z,81.20
2022-10-08T21:00:51.084Z,81.30
2022-10-08T21:03:17.762Z,81.30
2022-10-08T21:05:45.816Z,81.40
2022-10-08T21:08:12.425Z,81.60
2022-10-08T21:10:39.105Z,81.60
2022-10-08T21:13:05.957Z,81.60
2022-10-08T21:15:32.645Z,81.70
2022-10-08T21:17:59.481Z,81.80
2022-10-08T21:20:26.177Z,81.90
2022-10-08T21:22:53.004Z,81.90
2022-10-08T21:25:19.670Z,82.00
2022-10-08T21:27:46.506Z,82.10
2022-10-08T21:30:13.812Z,82.20
2022-10-08T21:32:40.607Z,82.20
2022-10-08T21:35:07.459Z,82.30
2022-10-08T21:37:34.180Z,82.40
2022-10-08T21:40:01.218Z,82.50
2022-10-08T21:42:28.094Z,82.50
2022-10-08T21:44:54.775Z,82.50
2022-10-08T21:47:21.449Z,82.60
2022-10-08T21:49:48.682Z,82.60
2022-10-08T21:52:15.408Z,82.60
2022-10-08T21:54:42.047Z,82.70
2022-10-08T21:57:10.052Z,82.80
2022-10-08T21:59:38.149Z,82.80
2022-10-08T22:02:04.918Z,83.00
2022-10-08T22:04:31.659Z,83.00
2022-10-08T22:06:59.608Z,83.10
2022-10-08T22:09:26.951Z,83.10
2022-10-08T22:11:53.674Z,83.20
2022-10-08T22:14:20.437Z,83.20
2022-10-08T22:16:47.435Z,83.20
2022-10-08T22:19:14.636Z,83.20
2022-10-08T22:21:41.475Z,83.20
2022-10-08T22:24:08.282Z,83.20
2022-10-08T22:26:35.959Z,83.30
2022-10-08T22:29:02.802Z,83.30
2022-10-08T22:31:29.706Z,83.40
2022-10-08T22:33:56.435Z,83.40
2022-10-08T22:36:23.828Z,83.50
2022-10-08T22:38:50.639Z,83.60
2022-10-08T22:41:18.392Z,83.60
2022-10-08T22:43:45.137Z,83.60
2022-10-08T22:46:13.045Z,83.70
2022-10-08T22:48:39.724Z,83.80
2022-10-08T22:51:07.238Z,83.90
2022-10-08T22:53:34.212Z,83.90
2022-10-08T22:56:03.402Z,83.90
2022-10-08T22:58:29.986Z,84.10
2022-10-08T23:01:03.103Z,84.20
2022-10-08T23:03:29.962Z,84.20
2022-10-08T23:06:07.858Z,84.20
2022-10-08T23:08:35.005Z,84.30
2022-10-08T23:11:01.828Z,84.40
2022-10-08T23:13:28.622Z,84.40
2022-10-08T23:16:02.724Z,84.50
2022-10-08T23:18:30.451Z,84.60
2022-10-08T23:20:57.171Z,84.80
2022-10-08T23:23:23.819Z,84.70
2022-10-08T23:25:57.149Z,84.70
2022-10-08T23:28:24.026Z,84.70
2022-10-08T23:30:50.699Z,84.80
2022-10-08T23:33:17.422Z,84.80
2022-10-08T23:35:44.062Z,84.90
2022-10-08T23:38:10.802Z,84.90
2022-10-08T23:40:37.431Z,85.00
2022-10-08T23:43:04.269Z,85.00
2022-10-08T23:45:30.930Z,85.00
2022-10-08T23:47:57.632Z,85.00
2022-10-08T23:50:24.403Z,85.00
2022-10-08T23:52:51.282Z,85.10
2022-10-08T23:55:18.202Z,85.20
2022-10-08T23:57:44.924Z,85.10
